createdAt,value
2019-03-18T00:00:15.585Z,94668.31
2019-03-18T00:02:44.216Z,94669.52
2019-03-18T00:05:12.777Z,94672.49
2019-03-18T00:07:41.405Z,94672.65
2019-03-18T00:10:10.448Z,94679.71
2019-03-18T00:12:39.024Z,94671.34
2019-03-18T00:15:09.403Z,94664.16
2019-03-18T00:17:38.052Z,94668.55
2019-03-18T00:20:08.493Z,94677.10
2019-03-18T00:22:37.107Z,94664.34
2019-03-18T00:25:13.922Z,94673.80
2019-03-18T00:27:42.644Z,94667.56
2019-03-18T00:30:16.062Z,94665.87
2019-03-18T00:32:44.621Z,94675.94
2019-03-18T00:35:13.659Z,94676.70
2019-03-18T00:37:42.221Z,94686.75
2019-03-18T00:40:15.805Z,94679.75
2019-03-18T00:42:44.417Z,94684.02
2019-03-18T00:45:15.125Z,94678.70
2019-03-18T00:47:43.516Z,94675.36
2019-03-18T00:50:16.225Z,94672.33
2019-03-18T00:52:45.054Z,94659.55
2019-03-18T00:55:13.695Z,94673.84
2019-03-18T00:57:42.351Z,94665.31
2019-03-18T01:00:16.953Z,94662.58
2019-03-18T01:02:45.621Z,94664.27
2019-03-18T01:05:14.249Z,94664.23
2019-03-18T01:07:42.882Z,94654.36
2019-03-18T01:10:13.835Z,94659.37
2019-03-18T01:12:42.403Z,94656.80
2019-03-18T01:15:11.948Z,94651.19
2019-03-18T01:17:40.541Z,94655.42
2019-03-18T01:20:11.433Z,94650.55
2019-03-18T01:22:40.249Z,94644.78
2019-03-18T01:25:10.524Z,94642.66
2019-03-18T01:27:39.088Z,94650.41
2019-03-18T01:30:13.832Z,94644.92
2019-03-18T01:32:42.406Z,94649.95
2019-03-18T01:35:11.346Z,94645.09
2019-03-18T01:37:40.015Z,94640.83
2019-03-18T01:40:13.644Z,94642.49
2019-03-18T01:42:42.279Z,94637.80
2019-03-18T01:45:12.041Z,94642.34
2019-03-18T01:47:40.700Z,94641.42
2019-03-18T01:50:14.144Z,94643.55
2019-03-18T01:52:42.802Z,94638.38
2019-03-18T01:55:11.437Z,94642.92
2019-03-18T01:57:39.948Z,94644.84
2019-03-18T02:00:14.294Z,94647.73
2019-03-18T02:02:42.929Z,94634.22
2019-03-18T02:05:11.768Z,94639.52
2019-03-18T02:07:40.441Z,94641.17
2019-03-18T02:10:11.243Z,94643.29
2019-03-18T02:12:39.885Z,94645.42
2019-03-18T02:15:11.024Z,94651.16
2019-03-18T02:17:39.518Z,94651.97
2019-03-18T02:20:19.399Z,94652.89
2019-03-18T02:22:46.865Z,94645.31
2019-03-18T02:25:15.494Z,94659.25
2019-03-18T02:27:44.007Z,94657.69
2019-03-18T02:30:17.168Z,94662.52
2019-03-18T02:32:45.842Z,94664.03
2019-03-18T02:35:14.474Z,94670.12
2019-03-18T02:37:43.224Z,94670.23
2019-03-18T02:40:12.643Z,94666.14
2019-03-18T02:42:41.293Z,94668.38
2019-03-18T02:45:11.135Z,94668.98
2019-03-18T02:47:39.767Z,94662.27
2019-03-18T02:50:10.300Z,94667.83
2019-03-18T02:52:39.056Z,94671.46
2019-03-18T02:55:08.574Z,94671.48
2019-03-18T02:57:37.244Z,94670.39
2019-03-18T03:00:14.297Z,94666.27
2019-03-18T03:02:42.988Z,94671.00
2019-03-18T03:05:12.917Z,94672.03
2019-03-18T03:07:41.548Z,94668.27
2019-03-18T03:10:12.024Z,94670.09
2019-03-18T03:12:40.600Z,94673.39
2019-03-18T03:15:11.227Z,94666.14
2019-03-18T03:17:39.805Z,94672.89
2019-03-18T03:20:10.346Z,94673.19
2019-03-18T03:22:39.034Z,94669.57
2019-03-18T03:25:08.986Z,94665.81
2019-03-18T03:27:37.457Z,94661.85
2019-03-18T03:30:08.717Z,94667.91
2019-03-18T03:32:37.367Z,94666.41
2019-03-18T03:35:06.803Z,94672.33
2019-03-18T03:37:35.332Z,94668.50
2019-03-18T03:40:05.161Z,94678.31
2019-03-18T03:42:33.797Z,94685.30
2019-03-18T03:45:02.480Z,94685.23
2019-03-18T03:47:30.977Z,94688.17
2019-03-18T03:49:59.692Z,94684.30
2019-03-18T03:52:28.590Z,94688.05
2019-03-18T03:54:57.305Z,94683.16
2019-03-18T03:57:26.203Z,94680.77
2019-03-18T03:59:56.288Z,94690.09
2019-03-18T04:02:24.919Z,94696.02
2019-03-18T04:04:53.599Z,94691.33
2019-03-18T04:07:22.213Z,94697.55
2019-03-18T04:09:50.888Z,94695.63
2019-03-18T04:12:19.490Z,94701.34
2019-03-18T04:14:48.183Z,94699.98
2019-03-18T04:17:16.763Z,94697.67
2019-03-18T04:19:45.249Z,94700.70
2019-03-18T04:22:13.925Z,94700.41
2019-03-18T04:24:42.557Z,94698.83
2019-03-18T04:27:11.065Z,94698.56
2019-03-18T04:29:39.599Z,94701.63
2019-03-18T04:32:08.234Z,94702.02
2019-03-18T04:34:36.735Z,94704.97
2019-03-18T04:37:05.403Z,94709.02
2019-03-18T04:39:34.041Z,94714.47
2019-03-18T04:42:02.632Z,94715.05
2019-03-18T04:44:31.234Z,94719.36
2019-03-18T04:46:59.823Z,94719.77
2019-03-18T04:49:28.473Z,94714.80
2019-03-18T04:51:56.994Z,94716.27
2019-03-18T04:54:25.515Z,94716.70
2019-03-18T04:56:54.137Z,94718.00
2019-03-18T04:59:23.082Z,94722.45
2019-03-18T05:01:51.582Z,94717.72
2019-03-18T05:04:20.087Z,94724.96
2019-03-18T05:06:49.039Z,94713.23
2019-03-18T05:09:17.696Z,94727.72
2019-03-18T05:11:46.197Z,94728.70
2019-03-18T05:14:14.990Z,94731.89
2019-03-18T05:16:43.494Z,94733.87
2019-03-18T05:19:11.994Z,94742.66
2019-03-18T05:21:40.687Z,94741.59
2019-03-18T05:24:09.328Z,94737.48
2019-03-18T05:26:37.851Z,94735.08
2019-03-18T05:29:06.381Z,94739.56
2019-03-18T05:31:35.138Z,94744.52
2019-03-18T05:34:03.801Z,94740.27
2019-03-18T05:36:32.344Z,94743.31
2019-03-18T05:39:00.847Z,94741.61
2019-03-18T05:41:29.483Z,94748.09
2019-03-18T05:43:58.166Z,94752.15
2019-03-18T05:46:26.671Z,94749.75
2019-03-18T05:48:55.241Z,94757.45
2019-03-18T05:51:23.923Z,94755.95
2019-03-18T05:53:52.423Z,94754.07
2019-03-18T05:56:21.068Z,94749.37
2019-03-18T05:58:49.782Z,94746.62
2019-03-18T06:01:18.276Z,94745.77
2019-03-18T06:03:46.782Z,94746.41
2019-03-18T06:06:15.634Z,94735.74
2019-03-18T06:08:44.311Z,94727.98
2019-03-18T06:11:12.829Z,94736.93
2019-03-18T06:13:41.373Z,94736.84
2019-03-18T06:16:10.015Z,94742.34
2019-03-18T06:18:38.714Z,94735.97
2019-03-18T06:21:07.445Z,94742.59
2019-03-18T06:23:35.956Z,94740.53
2019-03-18T06:26:04.598Z,94739.56
2019-03-18T06:28:33.307Z,94727.69
2019-03-18T06:31:01.918Z,94726.37
2019-03-18T06:33:30.538Z,94730.38
2019-03-18T06:35:59.164Z,94733.91
2019-03-18T06:38:27.671Z,94736.39
2019-03-18T06:40:56.314Z,94732.75
2019-03-18T06:43:25.199Z,94731.98
2019-03-18T06:45:53.693Z,94734.90
2019-03-18T06:48:22.193Z,94728.89
2019-03-18T06:50:50.866Z,94731.77
2019-03-18T06:53:19.507Z,94737.65
2019-03-18T06:55:48.009Z,94731.23
2019-03-18T06:58:16.542Z,94734.97
2019-03-18T07:00:45.192Z,94737.20
2019-03-18T07:03:13.833Z,94733.50
2019-03-18T07:05:42.382Z,94735.38
2019-03-18T07:08:10.979Z,94734.00
2019-03-18T07:10:39.628Z,94737.50
2019-03-18T07:13:08.168Z,94735.16
2019-03-18T07:15:36.892Z,94731.56
2019-03-18T07:18:17.541Z,94739.30
2019-03-18T07:20:35.922Z,94729.52
2019-03-18T07:23:04.660Z,94727.48
2019-03-18T07:25:33.373Z,94731.42
2019-03-18T07:28:02.061Z,94730.62
2019-03-18T07:30:30.625Z,94732.08
2019-03-18T07:32:59.292Z,94728.31
2019-03-18T07:35:28.197Z,94721.75
2019-03-18T07:37:56.829Z,94729.19
2019-03-18T07:40:25.398Z,94727.34
2019-03-18T07:42:54.000Z,94726.59
2019-03-18T07:45:22.645Z,94721.34
2019-03-18T07:47:51.304Z,94715.59
2019-03-18T07:50:19.988Z,94710.98
2019-03-18T07:52:48.615Z,94714.28
2019-03-18T07:55:17.320Z,94705.83
2019-03-18T07:57:46.177Z,94700.59
2019-03-18T08:00:15.620Z,94705.45
2019-03-18T08:02:44.264Z,94705.91
2019-03-18T08:05:12.882Z,94702.53
2019-03-18T08:07:41.456Z,94693.75
2019-03-18T08:10:12.347Z,94696.84
2019-03-18T08:12:41.374Z,94689.48
2019-03-18T08:15:11.211Z,94686.33
2019-03-18T08:17:39.784Z,94676.91
2019-03-18T08:20:14.847Z,94685.84
2019-03-18T08:22:43.482Z,94685.12
2019-03-18T08:25:12.075Z,94688.31
2019-03-18T08:27:40.816Z,94682.32
2019-03-18T08:30:12.143Z,94680.27
2019-03-18T08:32:40.767Z,94685.37
2019-03-18T08:35:09.473Z,94682.03
2019-03-18T08:37:38.091Z,94672.83
2019-03-18T08:40:08.932Z,94678.45
2019-03-18T08:42:37.540Z,94676.65
2019-03-18T08:45:08.744Z,94673.12
2019-03-18T08:47:37.378Z,94668.97
2019-03-18T08:50:08.250Z,94659.79
2019-03-18T08:52:36.796Z,94664.82
2019-03-18T08:55:07.763Z,94656.47
2019-03-18T08:57:36.661Z,94663.59
2019-03-18T09:00:13.395Z,94670.09
2019-03-18T09:02:41.987Z,94652.97
2019-03-18T09:05:10.718Z,94659.70
2019-03-18T09:07:39.369Z,94647.89
2019-03-18T09:10:11.380Z,94647.48
2019-03-18T09:12:39.952Z,94645.89
2019-03-18T09:15:10.487Z,94642.67
2019-03-18T09:17:39.356Z,94642.33
2019-03-18T09:20:17.889Z,94636.88
2019-03-18T09:22:46.518Z,94645.08
2019-03-18T09:25:15.153Z,94637.42
2019-03-18T09:27:43.789Z,94639.77
2019-03-18T09:30:21.813Z,94630.51
2019-03-18T09:32:50.374Z,94624.45
2019-03-18T09:35:19.038Z,94629.47
2019-03-18T09:37:47.985Z,94629.47
2019-03-18T09:40:17.004Z,94624.19
2019-03-18T09:42:45.582Z,94625.56
2019-03-18T09:45:18.399Z,94623.57
2019-03-18T09:47:47.022Z,94625.84
2019-03-18T09:50:16.769Z,94625.22
2019-03-18T09:52:45.462Z,94612.91
2019-03-18T09:55:14.077Z,94610.06
2019-03-18T09:57:42.715Z,94609.16
2019-03-18T10:00:16.644Z,94605.72
2019-03-18T10:02:45.279Z,94605.84
2019-03-18T10:05:13.916Z,94607.92
2019-03-18T10:07:42.587Z,94596.83
2019-03-18T10:10:13.537Z,94599.81
2019-03-18T10:12:42.178Z,94590.20
2019-03-18T10:15:15.894Z,94590.42
2019-03-18T10:17:44.464Z,94582.91
2019-03-18T10:20:13.444Z,94576.34
2019-03-18T10:22:42.114Z,94585.05
2019-03-18T10:25:10.855Z,94578.82
2019-03-18T10:27:39.525Z,94576.56
2019-03-18T10:30:10.886Z,94575.93
2019-03-18T10:32:39.451Z,94574.66
2019-03-18T10:35:08.487Z,94577.20
2019-03-18T10:37:37.155Z,94563.61
2019-03-18T10:40:08.704Z,94567.69
2019-03-18T10:42:37.283Z,94571.00
2019-03-18T10:45:08.356Z,94568.86
2019-03-18T10:47:37.002Z,94557.93
2019-03-18T10:50:08.691Z,94548.27
2019-03-18T10:52:37.438Z,94548.04
2019-03-18T10:55:07.834Z,94541.52
2019-03-18T10:57:36.587Z,94537.13
2019-03-18T11:00:16.057Z,94538.42
2019-03-18T11:02:45.313Z,94528.77
2019-03-18T11:05:15.013Z,94524.67
2019-03-18T11:07:43.822Z,94516.33
2019-03-18T11:10:16.358Z,94522.94
2019-03-18T11:12:44.992Z,94520.91
2019-03-18T11:15:16.575Z,94515.69
2019-03-18T11:17:45.083Z,94512.25
2019-03-18T11:20:14.729Z,94503.67
2019-03-18T11:22:43.857Z,94509.03
2019-03-18T11:25:14.454Z,94500.47
2019-03-18T11:27:43.098Z,94494.17
2019-03-18T11:30:14.314Z,94490.15
2019-03-18T11:32:42.961Z,94495.56
2019-03-18T11:35:11.576Z,94491.45
2019-03-18T11:37:40.355Z,94489.05
2019-03-18T11:40:11.556Z,94484.37
2019-03-18T11:42:40.206Z,94472.50
2019-03-18T11:45:11.648Z,94478.02
2019-03-18T11:47:40.146Z,94480.95
2019-03-18T11:50:11.986Z,94464.20
2019-03-18T11:52:40.598Z,94463.48
2019-03-18T11:55:14.893Z,94464.64
2019-03-18T11:57:43.686Z,94462.03
2019-03-18T12:00:15.049Z,94444.34
2019-03-18T12:02:43.616Z,94451.97
2019-03-18T12:05:14.787Z,94447.16
2019-03-18T12:07:43.467Z,94437.19
2019-03-18T12:10:19.057Z,94433.33
2019-03-18T12:12:47.687Z,94435.53
2019-03-18T12:15:21.906Z,94423.41
2019-03-18T12:17:50.639Z,94412.73
2019-03-18T12:20:24.990Z,94414.03
2019-03-18T12:22:49.607Z,94414.53
2019-03-18T12:25:18.232Z,94410.59
2019-03-18T12:27:46.956Z,94410.09
2019-03-18T12:30:20.228Z,94406.01
2019-03-18T12:32:48.860Z,94406.94
2019-03-18T12:35:17.513Z,94397.22
2019-03-18T12:37:46.146Z,94393.59
2019-03-18T12:40:16.083Z,94387.95
2019-03-18T12:42:45.501Z,94385.08
2019-03-18T12:45:18.243Z,94382.44
2019-03-18T12:47:47.205Z,94387.06
2019-03-18T12:50:43.031Z,94379.69
2019-03-18T12:52:56.114Z,94376.53
2019-03-18T12:55:24.751Z,94372.59
2019-03-18T12:57:53.344Z,94366.05
2019-03-18T13:00:30.166Z,94367.87
2019-03-18T13:02:58.790Z,94371.20
2019-03-18T13:05:27.493Z,94366.47
2019-03-18T13:07:56.170Z,94359.77
2019-03-18T13:10:24.793Z,94351.87
2019-03-18T13:12:53.424Z,94346.23
2019-03-18T13:15:22.582Z,94347.81
2019-03-18T13:17:51.231Z,94348.22
2019-03-18T13:20:23.298Z,94342.36
2019-03-18T13:22:54.008Z,94335.47
2019-03-18T13:25:22.271Z,94336.22
2019-03-18T13:27:51.009Z,94329.80
2019-03-18T13:30:22.581Z,94332.23
2019-03-18T13:32:51.153Z,94331.36
2019-03-18T13:35:19.815Z,94329.30
2019-03-18T13:37:48.478Z,94330.61
2019-03-18T13:40:17.786Z,94314.77
2019-03-18T13:42:46.326Z,94318.36
2019-03-18T13:45:19.200Z,94318.17
2019-03-18T13:47:47.940Z,94321.44
2019-03-18T13:50:20.304Z,94321.34
2019-03-18T13:52:48.938Z,94308.51
2019-03-18T13:55:17.682Z,94320.05
2019-03-18T13:57:46.298Z,94320.03
2019-03-18T14:00:21.894Z,94311.42
2019-03-18T14:02:50.569Z,94302.63
2019-03-18T14:05:19.741Z,94308.72
2019-03-18T14:07:59.767Z,94310.48
2019-03-18T14:10:20.583Z,94307.13
2019-03-18T14:12:49.267Z,94302.82
2019-03-18T14:15:19.962Z,94298.62
2019-03-18T14:17:48.611Z,94296.89
2019-03-18T14:20:18.779Z,94301.94
2019-03-18T14:22:47.411Z,94295.20
2019-03-18T14:25:16.043Z,94295.84
2019-03-18T14:27:44.720Z,94293.34
2019-03-18T14:30:17.891Z,94294.19
2019-03-18T14:32:46.525Z,94291.00
2019-03-18T14:35:15.198Z,94286.50
2019-03-18T14:37:44.207Z,94280.28
2019-03-18T14:40:25.693Z,94279.28
2019-03-18T14:42:54.429Z,94283.58
2019-03-18T14:45:23.771Z,94276.48
2019-03-18T14:47:52.440Z,94280.88
2019-03-18T14:50:21.080Z,94287.69
2019-03-18T14:52:49.824Z,94281.84
2019-03-18T14:55:19.381Z,94285.94
2019-03-18T14:57:48.018Z,94285.30
2019-03-18T15:00:21.394Z,94290.72
2019-03-18T15:02:50.229Z,94280.56
2019-03-18T15:05:18.966Z,94282.78
2019-03-18T15:07:47.530Z,94278.41
2019-03-18T15:10:17.693Z,94281.22
2019-03-18T15:12:46.321Z,94290.91
2019-03-18T15:15:16.965Z,94285.11
2019-03-18T15:17:45.933Z,94293.30
2019-03-18T15:20:24.534Z,94293.67
2019-03-18T15:22:53.193Z,94285.83
2019-03-18T15:25:29.378Z,94292.64
2019-03-18T15:27:58.277Z,94294.50
2019-03-18T15:30:26.973Z,94294.48
2019-03-18T15:32:55.586Z,94294.09
2019-03-18T15:35:24.537Z,94287.63
2019-03-18T15:37:53.170Z,94290.03
2019-03-18T15:40:26.535Z,94290.68
2019-03-18T15:42:55.414Z,94293.32
2019-03-18T15:45:24.243Z,94299.34
2019-03-18T15:47:52.880Z,94303.33
2019-03-18T15:50:27.692Z,94301.59
2019-03-18T15:52:56.320Z,94303.30
2019-03-18T15:55:25.191Z,94300.44
2019-03-18T15:57:53.935Z,94303.69
2019-03-18T16:00:26.552Z,94304.97
2019-03-18T16:02:55.236Z,94311.55
2019-03-18T16:05:23.885Z,94316.67
2019-03-18T16:07:52.485Z,94314.69
2019-03-18T16:10:21.616Z,94311.22
2019-03-18T16:12:50.244Z,94310.70
2019-03-18T16:15:19.080Z,94319.26
2019-03-18T16:17:47.769Z,94317.80
2019-03-18T16:20:18.107Z,94320.79
2019-03-18T16:22:46.762Z,94324.59
2019-03-18T16:25:15.530Z,94332.12
2019-03-18T16:27:44.088Z,94334.94
2019-03-18T16:30:14.615Z,94332.93
2019-03-18T16:32:43.401Z,94337.91
2019-03-18T16:35:16.523Z,94341.25
2019-03-18T16:37:45.186Z,94339.12
2019-03-18T16:40:19.143Z,94341.91
2019-03-18T16:42:47.725Z,94347.25
2019-03-18T16:45:19.947Z,94347.26
2019-03-18T16:47:48.891Z,94347.98
2019-03-18T16:50:22.647Z,94350.98
2019-03-18T16:52:51.204Z,94352.69
2019-03-18T16:55:19.956Z,94351.30
2019-03-18T16:57:48.595Z,94350.00
2019-03-18T17:00:19.430Z,94362.38
2019-03-18T17:02:47.970Z,94358.09
2019-03-18T17:05:16.609Z,94363.77
2019-03-18T17:07:45.246Z,94369.84
2019-03-18T17:10:14.815Z,94372.34
2019-03-18T17:12:43.751Z,94376.56
2019-03-18T17:15:17.149Z,94386.08
2019-03-18T17:17:45.830Z,94386.89
2019-03-18T17:20:15.367Z,94388.46
2019-03-18T17:22:49.406Z,94396.16
2019-03-18T17:25:17.248Z,94392.60
2019-03-18T17:27:45.881Z,94398.98
2019-03-18T17:30:16.610Z,94401.08
2019-03-18T17:32:45.245Z,94398.04
2019-03-18T17:35:14.677Z,94398.04
2019-03-18T17:37:43.452Z,94400.19
2019-03-18T17:40:19.024Z,94397.38
2019-03-18T17:42:47.578Z,94405.80
2019-03-18T17:45:17.548Z,94407.92
2019-03-18T17:47:46.199Z,94405.36
2019-03-18T17:50:19.963Z,94404.66
2019-03-18T17:53:00.891Z,94414.26
2019-03-18T17:55:19.192Z,94415.49
2019-03-18T17:57:47.689Z,94423.61
2019-03-18T18:00:23.847Z,94423.85
2019-03-18T18:02:53.019Z,94431.53
2019-03-18T18:05:21.798Z,94433.15
2019-03-18T18:07:50.347Z,94435.41
2019-03-18T18:10:18.989Z,94433.27
2019-03-18T18:12:47.646Z,94433.55
2019-03-18T18:15:16.243Z,94443.58
2019-03-18T18:17:44.812Z,94441.28
2019-03-18T18:20:14.639Z,94444.53
2019-03-18T18:22:43.303Z,94456.56
2019-03-18T18:25:13.811Z,94457.97
2019-03-18T18:27:42.683Z,94461.50
2019-03-18T18:30:13.670Z,94457.53
2019-03-18T18:32:42.312Z,94468.23
2019-03-18T18:35:11.580Z,94455.53
2019-03-18T18:37:40.208Z,94454.58
2019-03-18T18:40:14.020Z,94454.64
2019-03-18T18:42:42.789Z,94457.03
2019-03-18T18:45:12.613Z,94463.57
2019-03-18T18:47:41.249Z,94475.23
2019-03-18T18:50:11.425Z,94477.42
2019-03-18T18:52:40.090Z,94483.89
2019-03-18T18:55:10.637Z,94479.65
2019-03-18T18:57:39.304Z,94470.06
2019-03-18T19:00:10.956Z,94478.51
2019-03-18T19:02:39.446Z,94489.36
2019-03-18T19:05:11.046Z,94486.03
2019-03-18T19:07:39.639Z,94489.09
2019-03-18T19:10:11.524Z,94485.38
2019-03-18T19:12:40.161Z,94489.06
2019-03-18T19:15:25.802Z,94503.72
2019-03-18T19:17:54.371Z,94500.91
2019-03-18T19:20:23.078Z,94508.39
2019-03-18T19:22:51.800Z,94503.48
2019-03-18T19:25:20.441Z,94507.63
2019-03-18T19:27:49.080Z,94506.92
2019-03-18T19:30:19.431Z,94506.84
2019-03-18T19:32:48.061Z,94508.90
2019-03-18T19:35:16.688Z,94509.47
2019-03-18T19:37:45.469Z,94515.13
2019-03-18T19:40:22.579Z,94515.39
2019-03-18T19:42:51.250Z,94527.35
2019-03-18T19:45:19.885Z,94533.89
2019-03-18T19:47:48.451Z,94528.27
2019-03-18T19:50:21.662Z,94531.41
2019-03-18T19:52:50.291Z,94540.30
2019-03-18T19:55:18.827Z,94533.53
2019-03-18T19:57:47.409Z,94530.74
2019-03-18T20:00:21.095Z,94537.05
2019-03-18T20:02:49.775Z,94536.93
2019-03-18T20:05:19.073Z,94543.45
2019-03-18T20:07:47.814Z,94548.61
2019-03-18T20:10:18.505Z,94553.11
2019-03-18T20:12:47.139Z,94551.61
2019-03-18T20:15:16.682Z,94555.09
2019-03-18T20:17:45.467Z,94555.82
2019-03-18T20:20:19.041Z,94561.80
2019-03-18T20:22:47.660Z,94563.64
2019-03-18T20:25:16.450Z,94557.46
2019-03-18T20:27:45.024Z,94560.19
2019-03-18T20:30:18.349Z,94549.48
2019-03-18T20:32:46.889Z,94554.76
2019-03-18T20:35:22.433Z,94555.91
2019-03-18T20:37:52.128Z,94561.05
2019-03-18T20:40:21.277Z,94567.46
2019-03-18T20:42:49.850Z,94571.19
2019-03-18T20:45:19.389Z,94576.89
2019-03-18T20:47:48.081Z,94579.03
2019-03-18T20:50:21.514Z,94586.30
2019-03-18T20:52:50.026Z,94589.22
2019-03-18T20:55:18.804Z,94590.64
2019-03-18T20:57:47.441Z,94595.12
2019-03-18T21:00:19.926Z,94591.39
2019-03-18T21:02:48.468Z,94594.84
2019-03-18T21:05:17.113Z,94591.27
2019-03-18T21:07:45.825Z,94592.48
2019-03-18T21:10:19.110Z,94595.27
2019-03-18T21:12:47.745Z,94599.59
2019-03-18T21:15:17.380Z,94603.59
2019-03-18T21:17:46.046Z,94605.20
2019-03-18T21:20:19.717Z,94602.75
2019-03-18T21:22:48.364Z,94605.95
2019-03-18T21:25:17.145Z,94602.06
2019-03-18T21:27:45.784Z,94594.27
2019-03-18T21:30:23.601Z,94596.45
2019-03-18T21:32:52.273Z,94594.06
2019-03-18T21:35:20.813Z,94595.80
2019-03-18T21:37:49.509Z,94599.38
2019-03-18T21:40:19.143Z,94597.70
2019-03-18T21:42:48.185Z,94599.10
2019-03-18T21:45:19.023Z,94595.28
2019-03-18T21:47:47.763Z,94600.38
2019-03-18T21:50:17.097Z,94602.81
2019-03-18T21:52:45.776Z,94606.36
2019-03-18T21:55:15.379Z,94603.23
2019-03-18T21:57:44.008Z,94601.73
2019-03-18T22:00:15.730Z,94599.30
2019-03-18T22:02:44.290Z,94603.55
2019-03-18T22:05:12.945Z,94603.52
2019-03-18T22:07:41.626Z,94609.17
2019-03-18T22:10:12.456Z,94608.27
2019-03-18T22:12:40.947Z,94605.66
2019-03-18T22:15:11.481Z,94603.45
2019-03-18T22:17:40.108Z,94602.22
2019-03-18T22:20:14.737Z,94602.89
2019-03-18T22:22:43.374Z,94610.28
2019-03-18T22:25:13.710Z,94609.44
2019-03-18T22:27:42.636Z,94615.20
2019-03-18T22:30:15.904Z,94612.70
2019-03-18T22:32:44.943Z,94607.48
2019-03-18T22:35:14.027Z,94613.13
2019-03-18T22:37:42.510Z,94609.24
2019-03-18T22:40:16.779Z,94611.05
2019-03-18T22:42:45.428Z,94612.81
2019-03-18T22:45:15.452Z,94620.23
2019-03-18T22:47:44.086Z,94624.45
2019-03-18T22:50:13.452Z,94629.84
2019-03-18T22:52:42.081Z,94636.83
2019-03-18T22:55:11.613Z,94643.54
2019-03-18T22:57:40.219Z,94641.31
2019-03-18T23:00:26.229Z,94646.20
2019-03-18T23:02:54.866Z,94653.40
2019-03-18T23:05:23.495Z,94654.16
2019-03-18T23:07:51.987Z,94654.11
2019-03-18T23:10:20.911Z,94652.83
2019-03-18T23:12:49.404Z,94658.03
2019-03-18T23:15:18.142Z,94661.02
2019-03-18T23:17:46.804Z,94652.53
2019-03-18T23:20:15.567Z,94659.61
2019-03-18T23:22:44.130Z,94664.70
2019-03-18T23:25:12.907Z,94669.14
2019-03-18T23:27:41.530Z,94663.44
2019-03-18T23:30:12.336Z,94670.15
2019-03-18T23:32:41.126Z,94678.86
2019-03-18T23:35:10.354Z,94673.57
2019-03-18T23:37:38.981Z,94677.83
2019-03-18T23:40:09.870Z,94678.34
2019-03-18T23:42:38.362Z,94680.23
2019-03-18T23:45:08.294Z,94683.89
2019-03-18T23:47:36.952Z,94690.04
2019-03-18T23:50:11.071Z,94681.23
2019-03-18T23:52:39.716Z,94687.50
2019-03-18T23:55:18.212Z,94688.69
2019-03-18T23:57:39.728Z,94696.23
